Bookmark and Share
Track history (hours):
 

Golden Shanghai

Last reported at 2014-Apr-22 18:27 UTC. Time now 2014-Apr-24 04:10 UTC.
Position S 27°13' E 034°16'.

Length 292 m; draft 10.3 m.

Type: Cargo ship. MMSI: 256456000.

NotesDate/timePositionNaut miles runAvg speedWind from/ knotsBaromVisibWave heightAir tempDewpointWater temp
2014-Apr-22 18:27S 27°13' E 034°16'36 8.7
2014-Apr-22 14:17S 27°38' E 033°46'6 8.4
2014-Apr-22 13:31S 27°42' E 033°41'8 8.4
2014-Apr-22 12:30S 27°48' E 033°34'8 8.7
2014-Apr-22 11:33S 27°54' E 033°28'11 8.7
2014-Apr-22 10:16S 28°02' E 033°18'24 8.8
2014-Apr-22 07:32S 28°18' E 032°59'8 8.6
2014-Apr-22 06:33S 28°24' E 032°52'8 8.3
2014-Apr-22 05:33S 28°30' E 032°45'9 8.4
2014-Apr-22 04:28S 28°37' E 032°38'8 8.2
2014-Apr-22 03:33S 28°42' E 032°32'18 8.0
2014-Apr-22 01:20S 28°50' E 032°13'7 9.3
2014-Apr-22 00:33S 28°48' E 032°05'2 0.0
2014-Apr-19 21:17S 28°49' E 032°03'1 1.7
2014-Apr-19 20:33S 28°48' E 032°04'8 6.0
2014-Apr-19 19:18S 28°54' E 032°09'1 0.8
2014-Apr-19 18:32S 28°54' E 032°08'0 0.0
2014-Apr-19 17:32S 28°54' E 032°08'0 0.0
2014-Apr-19 16:14S 28°54' E 032°08'0 0.0
2014-Apr-19 15:32S 28°54' E 032°08'0 0.0
2014-Apr-19 14:32S 28°54' E 032°08'0 0.0
2014-Apr-19 13:20S 28°54' E 032°08'0 0.0
2014-Apr-19 12:32S 28°54' E 032°08'0 0.0
2014-Apr-19 11:26S 28°54' E 032°08'0 0.0
2014-Apr-19 10:14S 28°54' E 032°08'0 0.0
2014-Apr-19 09:23S 28°54' E 032°08'0 0.0
2014-Apr-19 08:20S 28°54' E 032°08'0 0.0
2014-Apr-19 07:32S 28°54' E 032°08'0 0.0
2014-Apr-19 05:32S 28°54' E 032°08'0 0.0
2014-Apr-19 04:32S 28°54' E 032°08'0 0.0
2014-Apr-19 02:26S 28°54' E 032°08'0 0.0
2014-Apr-19 01:32S 28°54' E 032°08'  

Dump ship's entire track history

sailing weather and tide predictions

Golden Shanghai — 9HA2862 — position and weather